sensor_id;sensor_type;location;lat;lon;timestamp;P1;P2;P0
57798;PMS7003;43626;53.866;30.298;2022-11-15T00:04:09;53.2;42.4;26.4
57798;PMS7003;43626;53.866;30.298;2022-11-15T00:09:19;52;39.3;24.3
57798;PMS7003;43626;53.866;30.298;2022-11-15T00:14:39;50.4;38.4;23.8
57798;PMS7003;43626;53.866;30.298;2022-11-15T00:19:23;47.6;37.6;23.8
57798;PMS7003;43626;53.866;30.298;2022-11-15T00:24:53;48.6;37.2;23.2
57798;PMS7003;43626;53.866;30.298;2022-11-15T00:29:05;46.2;36.6;23
57798;PMS7003;43626;53.866;30.298;2022-11-15T00:34:37;48.8;36.8;22.8
57798;PMS7003;43626;53.866;30.298;2022-11-15T00:39:35;47.6;39;23.8
57798;PMS7003;43626;53.866;30.298;2022-11-15T00:44:39;41.4;33.4;20.4
57798;PMS7003;43626;53.866;30.298;2022-11-15T00:49:39;40.4;34.2;22
57798;PMS7003;43626;53.866;30.298;2022-11-15T00:54:11;46.8;36;23.2
57798;PMS7003;43626;53.866;30.298;2022-11-15T00:59:51;44.6;36;22.6
57798;PMS7003;43626;53.866;30.298;2022-11-15T01:04:05;51.2;36.4;22.8
57798;PMS7003;43626;53.866;30.298;2022-11-15T01:09:33;46;35.8;22.3
57798;PMS7003;43626;53.866;30.298;2022-11-15T01:14:27;45.6;35.4;22.2
57798;PMS7003;43626;53.866;30.298;2022-11-15T01:19:05;43.6;35;22
57798;PMS7003;43626;53.866;30.298;2022-11-15T01:24:11;44.8;36.4;22.8
57798;PMS7003;43626;53.866;30.298;2022-11-15T01:29:41;53.6;40.6;24
57798;PMS7003;43626;53.866;30.298;2022-11-15T01:34:27;49.2;38.2;21.8
57798;PMS7003;43626;53.866;30.298;2022-11-15T01:39:57;35;26.6;16.6
57798;PMS7003;43626;53.866;30.298;2022-11-15T01:44:34;31.2;26.6;16
57798;PMS7003;43626;53.866;30.298;2022-11-15T01:49:45;27.8;24;14.8
57798;PMS7003;43626;53.866;30.298;2022-11-15T01:54:37;30;24;15.2
57798;PMS7003;43626;53.866;30.298;2022-11-15T01:59:41;27.6;22.2;14.4
57798;PMS7003;43626;53.866;30.298;2022-11-15T02:04:57;24.4;21.4;14.8
57798;PMS7003;43626;53.866;30.298;2022-11-15T02:09:05;26.3;23.3;15.3
57798;PMS7003;43626;53.866;30.298;2022-11-15T02:14:55;22.6;20.8;13.4
57798;PMS7003;43626;53.866;30.298;2022-11-15T02:19:11;22.8;20.6;13.4
57798;PMS7003;43626;53.866;30.298;2022-11-15T02:24:49;23.8;21;13.6
57798;PMS7003;43626;53.866;30.298;2022-11-15T02:29:23;25;21.2;13.2
57798;PMS7003;43626;53.866;30.298;2022-11-15T02:34:05;24.8;20.8;14
57798;PMS7003;43626;53.866;30.298;2022-11-15T02:39:25;25.8;21.6;13.8
57798;PMS7003;43626;53.866;30.298;2022-11-15T02:44:45;25;21;13.2
57798;PMS7003;43626;53.866;30.298;2022-11-15T02:49:28;28.8;24.8;14.6
57798;PMS7003;43626;53.866;30.298;2022-11-15T02:54:57;23.8;21.6;13.8
57798;PMS7003;43626;53.866;30.298;2022-11-15T02:59:24;23.4;20.6;14
57798;PMS7003;43626;53.866;30.298;2022-11-15T03:04:55;26.2;22.2;14.8
57798;PMS7003;43626;53.866;30.298;2022-11-15T03:09:56;24.5;20.8;13.8
57798;PMS7003;43626;53.866;30.298;2022-11-15T03:14:44;26.2;22.6;14.4
57798;PMS7003;43626;53.866;30.298;2022-11-15T03:19:44;25.6;20;13.8
57798;PMS7003;43626;53.866;30.298;2022-11-15T03:24:15;23;20.2;13.6
57798;PMS7003;43626;53.866;30.298;2022-11-15T03:29:55;30.6;25.6;15.8
57798;PMS7003;43626;53.866;30.298;2022-11-15T03:34:57;34.8;29.6;17.6
57798;PMS7003;43626;53.866;30.298;2022-11-15T03:39:39;26.8;24.2;15.4
57798;PMS7003;43626;53.866;30.298;2022-11-15T03:44:16;25.2;23;15.2
57798;PMS7003;43626;53.866;30.298;2022-11-15T03:49:14;28;23.8;15.6
57798;PMS7003;43626;53.866;30.298;2022-11-15T03:54:23;25.2;21.2;14.6
57798;PMS7003;43626;53.866;30.298;2022-11-15T03:59:53;35.4;29.6;18
57798;PMS7003;43626;53.866;30.298;2022-11-15T04:04:15;46.8;36.2;22
57798;PMS7003;43626;53.866;30.298;2022-11-15T04:09:55;43.4;35.8;21
57798;PMS7003;43626;53.866;30.298;2022-11-15T04:14:05;43.8;35.3;22.8
57798;PMS7003;43626;53.866;30.298;2022-11-15T04:19:37;36.4;30.8;18.6
57798;PMS7003;43626;53.866;30.298;2022-11-15T04:24:21;25.6;22.2;14
57798;PMS7003;43626;53.866;30.298;2022-11-15T04:29:43;26.8;22.8;14.2
57798;PMS7003;43626;53.866;30.298;2022-11-15T04:34:41;25.6;22.2;14.2
57798;PMS7003;43626;53.866;30.298;2022-11-15T04:39:29;25.2;22.2;14.4
57798;PMS7003;43626;53.866;30.298;2022-11-15T04:44:55;27.4;22.4;14.8
57798;PMS7003;43626;53.866;30.298;2022-11-15T04:49:41;25;21.2;14.6
57798;PMS7003;43626;53.866;30.298;2022-11-15T04:54:35;26.8;21.6;13.4
57798;PMS7003;43626;53.866;30.298;2022-11-15T04:59:27;24.4;21;13.6
57798;PMS7003;43626;53.866;30.298;2022-11-15T05:04:15;29.2;23.8;14.4
57798;PMS7003;43626;53.866;30.298;2022-11-15T05:09:25;27.4;24;15.2
57798;PMS7003;43626;53.866;30.298;2022-11-15T05:14:53;28.8;26;14.5
57798;PMS7003;43626;53.866;30.298;2022-11-15T05:19:25;28.8;22.8;14
57798;PMS7003;43626;53.866;30.298;2022-11-15T05:24:53;26.2;22.8;15
57798;PMS7003;43626;53.866;30.298;2022-11-15T05:29:13;27.6;23.4;14.8
57798;PMS7003;43626;53.866;30.298;2022-11-15T05:34:55;27.6;23;14
57798;PMS7003;43626;53.866;30.298;2022-11-15T05:39:25;24.6;21;13.4
57798;PMS7003;43626;53.866;30.298;2022-11-15T05:44:44;23.6;19.4;12.8
57798;PMS7003;43626;53.866;30.298;2022-11-15T05:49:41;24.8;20.4;13.2
57798;PMS7003;43626;53.866;30.298;2022-11-15T05:54:15;24.2;19.6;12.6
57798;PMS7003;43626;53.866;30.298;2022-11-15T05:59:37;23.8;19.8;9.8
57798;PMS7003;43626;53.866;30.298;2022-11-15T06:04:55;23.2;19.6;13
57798;PMS7003;43626;53.866;30.298;2022-11-15T06:09:39;22.8;19.6;12
57798;PMS7003;43626;53.866;30.298;2022-11-15T06:14:29;22.3;19.3;12.3
57798;PMS7003;43626;53.866;30.298;2022-11-15T06:19:05;18.6;16.8;9
57798;PMS7003;43626;53.866;30.298;2022-11-15T06:24:25;26;18.8;11.2
57798;PMS7003;43626;53.866;30.298;2022-11-15T06:29:49;20;17.4;10.6
57798;PMS7003;43626;53.866;30.298;2022-11-15T06:34:25;21.6;18.4;10.2
57798;PMS7003;43626;53.866;30.298;2022-11-15T06:39:51;19.8;17.2;9
57798;PMS7003;43626;53.866;30.298;2022-11-15T06:44:27;18.4;16.2;8.8
57798;PMS7003;43626;53.866;30.298;2022-11-15T06:49:51;19.6;16.6;9.4
57798;PMS7003;43626;53.866;30.298;2022-11-15T06:54:23;18.4;16.6;9.2
57798;PMS7003;43626;53.866;30.298;2022-11-15T06:59:37;24.2;19.4;11
57798;PMS7003;43626;53.866;30.298;2022-11-15T07:04:39;19.6;16.4;9.4
57798;PMS7003;43626;53.866;30.298;2022-11-15T07:09:15;18.2;14;7.8
57798;PMS7003;43626;53.866;30.298;2022-11-15T07:14:51;15.8;13.8;8
57798;PMS7003;43626;53.866;30.298;2022-11-15T07:19:51;20.2;16;10
57798;PMS7003;43626;53.866;30.298;2022-11-15T07:24:37;14.8;12.6;7.4
57798;PMS7003;43626;53.866;30.298;2022-11-15T07:29:27;17.2;15;8.6
57798;PMS7003;43626;53.866;30.298;2022-11-15T07:34:03;16;14;8.8
57798;PMS7003;43626;53.866;30.298;2022-11-15T07:39:39;18.4;15;9.4
57798;PMS7003;43626;53.866;30.298;2022-11-15T07:44:51;28.6;22.6;13.8
57798;PMS7003;43626;53.866;30.298;2022-11-15T07:49:27;20;17.2;10.2
57798;PMS7003;43626;53.866;30.298;2022-11-15T07:54:55;20.2;16.6;10
57798;PMS7003;43626;53.866;30.298;2022-11-15T07:59:05;20.8;16.2;10.2
57798;PMS7003;43626;53.866;30.298;2022-11-15T08:04:49;16.8;13.6;7.2
57798;PMS7003;43626;53.866;30.298;2022-11-15T08:09:05;14.4;11;6.2
57798;PMS7003;43626;53.866;30.298;2022-11-15T08:14:37;16.5;14.5;8.8
57798;PMS7003;43626;53.866;30.298;2022-11-15T08:19:39;11.6;9;6
57798;PMS7003;43626;53.866;30.298;2022-11-15T08:24:19;12.8;11.4;6
57798;PMS7003;43626;53.866;30.298;2022-11-15T08:29:53;12.4;10.2;6.4
57798;PMS7003;43626;53.866;30.298;2022-11-15T08:34:53;11.4;9.2;5.8
57798;PMS7003;43626;53.866;30.298;2022-11-15T08:39:37;11.2;8.6;5.2
57798;PMS7003;43626;53.866;30.298;2022-11-15T08:44:27;11.8;9.2;5.4
57798;PMS7003;43626;53.866;30.298;2022-11-15T08:49:05;11.2;7.8;5.4
57798;PMS7003;43626;53.866;30.298;2022-11-15T08:54:25;11;9.8;5.8
57798;PMS7003;43626;53.866;30.298;2022-11-15T08:59:49;12.4;9.2;5.2
57798;PMS7003;43626;53.866;30.298;2022-11-15T09:04:22;10.4;9;5.6
57798;PMS7003;43626;53.866;30.298;2022-11-15T09:09:51;9.8;8.2;4.8
57798;PMS7003;43626;53.866;30.298;2022-11-15T09:14:05;9;6.8;3.8
57798;PMS7003;43626;53.866;30.298;2022-11-15T09:19:51;11.3;9.3;4.8
57798;PMS7003;43626;53.866;30.298;2022-11-15T09:24:29;9.6;7.8;4.8
57798;PMS7003;43626;53.866;30.298;2022-11-15T09:29:39;9.8;8.2;5.4
57798;PMS7003;43626;53.866;30.298;2022-11-15T09:34:39;8.6;7.6;4.8
57798;PMS7003;43626;53.866;30.298;2022-11-15T09:39:05;16.6;14.6;8.8
57798;PMS7003;43626;53.866;30.298;2022-11-15T09:44:39;23.8;19.8;13.4
57798;PMS7003;43626;53.866;30.298;2022-11-15T09:49:53;13.4;11.8;7.4
57798;PMS7003;43626;53.866;30.298;2022-11-15T09:54:35;18.8;16.6;9.6
57798;PMS7003;43626;53.866;30.298;2022-11-15T09:59:23;16.6;13.4;7.2
57798;PMS7003;43626;53.866;30.298;2022-11-15T10:04:15;19.8;17.4;9.2
57798;PMS7003;43626;53.866;30.298;2022-11-15T10:09:39;15.6;11.6;6.4
57798;PMS7003;43626;53.866;30.298;2022-11-15T10:14:57;14.4;11.8;7
57798;PMS7003;43626;53.866;30.298;2022-11-15T10:19:16;15;13.3;7.8
57798;PMS7003;43626;53.866;30.298;2022-11-15T10:24:52;14.8;12.6;7
57798;PMS7003;43626;53.866;30.298;2022-11-15T10:29:03;23.4;17.4;9.4
57798;PMS7003;43626;53.866;30.298;2022-11-15T10:34:53;26.2;20.2;10.8
57798;PMS7003;43626;53.866;30.298;2022-11-15T10:39:25;25.8;20;9.6
57798;PMS7003;43626;53.866;30.298;2022-11-15T10:44:42;21;17.2;9.4
57798;PMS7003;43626;53.866;30.298;2022-11-15T10:49:37;24.8;21.8;12.4
57798;PMS7003;43626;53.866;30.298;2022-11-15T10:54:29;26.2;21.8;13.6
57798;PMS7003;43626;53.866;30.298;2022-11-15T10:59:52;27.6;21.2;12
57798;PMS7003;43626;53.866;30.298;2022-11-15T11:04:53;42;34;19.8
57798;PMS7003;43626;53.866;30.298;2022-11-15T11:09:37;34;26.6;16.2
57798;PMS7003;43626;53.866;30.298;2022-11-15T11:14:27;31.6;26.4;17
57798;PMS7003;43626;53.866;30.298;2022-11-15T11:19:08;34.3;29;18.5
57798;PMS7003;43626;53.866;30.298;2022-11-15T11:24:24;36.6;28.8;16.2
57798;PMS7003;43626;53.866;30.298;2022-11-15T11:29:55;39.2;30.2;18.2
57798;PMS7003;43626;53.866;30.298;2022-11-15T11:34:29;40.4;30.4;19
57798;PMS7003;43626;53.866;30.298;2022-11-15T11:39:56;39.4;31.4;18.8
57798;PMS7003;43626;53.866;30.298;2022-11-15T11:44:10;40.4;32.4;19.4
57798;PMS7003;43626;53.866;30.298;2022-11-15T11:49:15;32.8;26;15.6
57798;PMS7003;43626;53.866;30.298;2022-11-15T11:54:26;28.6;25.4;15.8
57798;PMS7003;43626;53.866;30.298;2022-11-15T11:59:42;31;26.2;15.6
57798;PMS7003;43626;53.866;30.298;2022-11-15T12:04:32;29.8;23.4;14
57798;PMS7003;43626;53.866;30.298;2022-11-15T12:09:07;27.8;24.6;13.6
57798;PMS7003;43626;53.866;30.298;2022-11-15T12:14:18;29.6;22.6;15.2
57798;PMS7003;43626;53.866;30.298;2022-11-15T12:19:39;36.3;29;18
57798;PMS7003;43626;53.866;30.298;2022-11-15T12:24:56;39.8;31.4;18.8
57798;PMS7003;43626;53.866;30.298;2022-11-15T12:29:29;32.8;27.8;16.4
57798;PMS7003;43626;53.866;30.298;2022-11-15T12:34:13;31.8;24.8;14.6
57798;PMS7003;43626;53.866;30.298;2022-11-15T12:39:05;31.2;24.2;14.6
57798;PMS7003;43626;53.866;30.298;2022-11-15T12:45:23;29;24.6;14.4
57798;PMS7003;43626;53.866;30.298;2022-11-15T12:49:08;32.6;26.4;14.8
57798;PMS7003;43626;53.866;30.298;2022-11-15T12:54:52;32.2;25.8;14.6
57798;PMS7003;43626;53.866;30.298;2022-11-15T12:59:06;33.8;26;14.4
57798;PMS7003;43626;53.866;30.298;2022-11-15T13:04:34;48;38.2;23.2
57798;PMS7003;43626;53.866;30.298;2022-11-15T13:09:56;30.4;26.4;14.8
57798;PMS7003;43626;53.866;30.298;2022-11-15T13:14:42;29.6;23.6;14.2
57798;PMS7003;43626;53.866;30.298;2022-11-15T13:19:41;27.2;21.2;13
57798;PMS7003;43626;53.866;30.298;2022-11-15T13:24:16;32.8;27.3;15.8
57798;PMS7003;43626;53.866;30.298;2022-11-15T13:29:14;25.2;19.6;11.2
57798;PMS7003;43626;53.866;30.298;2022-11-15T13:34:53;19.2;15;8.6
57798;PMS7003;43626;53.866;30.298;2022-11-15T13:39:53;17.8;14.4;9
57798;PMS7003;43626;53.866;30.298;2022-11-15T13:44:30;18;14.6;8.2
57798;PMS7003;43626;53.866;30.298;2022-11-15T13:49:08;19.6;16.6;9.6
57798;PMS7003;43626;53.866;30.298;2022-11-15T13:54:16;22.4;18.8;10.8
57798;PMS7003;43626;53.866;30.298;2022-11-15T13:59:54;19;17.2;10.6
57798;PMS7003;43626;53.866;30.298;2022-11-15T14:04:45;25;20.2;13.4
57798;PMS7003;43626;53.866;30.298;2022-11-15T14:09:43;23.6;18.6;10.4
57798;PMS7003;43626;53.866;30.298;2022-11-15T14:14:25;27.4;22.8;14
57798;PMS7003;43626;53.866;30.298;2022-11-15T14:19:33;32.8;27.4;16.4
57798;PMS7003;43626;53.866;30.298;2022-11-15T14:24:23;26.5;22;13.8
57798;PMS7003;43626;53.866;30.298;2022-11-15T14:29:43;22.4;20.4;13.6
57798;PMS7003;43626;53.866;30.298;2022-11-15T14:34:17;30.4;26.4;15.8
57798;PMS7003;43626;53.866;30.298;2022-11-15T14:39:15;41.6;31.2;18.6
57798;PMS7003;43626;53.866;30.298;2022-11-15T14:44:06;45.6;34.4;20.8
57798;PMS7003;43626;53.866;30.298;2022-11-15T14:49:55;34.8;27.6;15.8
57798;PMS7003;43626;53.866;30.298;2022-11-15T14:54:55;56.4;43.2;25.4
57798;PMS7003;43626;53.866;30.298;2022-11-15T14:59:27;48.4;37;21.8
57798;PMS7003;43626;53.866;30.298;2022-11-15T15:04:25;35.4;29;18.4
57798;PMS7003;43626;53.866;30.298;2022-11-15T15:09:05;29.4;24;15.2
57798;PMS7003;43626;53.866;30.298;2022-11-15T15:14:53;30.8;26.6;17.6
57798;PMS7003;43626;53.866;30.298;2022-11-15T15:19:15;28.8;25;16.6
57798;PMS7003;43626;53.866;30.298;2022-11-15T15:24:41;29.5;24.8;14.5
57798;PMS7003;43626;53.866;30.298;2022-11-15T15:29:13;22.2;19.8;10.6
57798;PMS7003;43626;53.866;30.298;2022-11-15T15:34:25;19.4;15.4;9.8
57798;PMS7003;43626;53.866;30.298;2022-11-15T15:39:13;22;18.2;11
57798;PMS7003;43626;53.866;30.298;2022-11-15T15:44:43;19;15.8;9.4
57798;PMS7003;43626;53.866;30.298;2022-11-15T15:49:39;17;14.6;9
57798;PMS7003;43626;53.866;30.298;2022-11-15T15:54:13;18.4;14.2;8.8
57798;PMS7003;43626;53.866;30.298;2022-11-15T15:59:13;16;12.2;7.4
57798;PMS7003;43626;53.866;30.298;2022-11-15T16:04:37;22.2;18;9.8
57798;PMS7003;43626;53.866;30.298;2022-11-15T16:09:23;24.4;20.4;12.4
57798;PMS7003;43626;53.866;30.298;2022-11-15T16:14:55;22.4;19.4;11
57798;PMS7003;43626;53.866;30.298;2022-11-15T16:19:29;20.8;17.4;10.4
57798;PMS7003;43626;53.866;30.298;2022-11-15T16:24:05;18.3;14.8;8.3
57798;PMS7003;43626;53.866;30.298;2022-11-15T16:29:23;20.2;17.2;10.2
57798;PMS7003;43626;53.866;30.298;2022-11-15T16:34:55;21.8;16.4;9.6
57798;PMS7003;43626;53.866;30.298;2022-11-15T16:39:55;16.4;12.8;8
57798;PMS7003;43626;53.866;30.298;2022-11-15T16:44:55;12.2;11.2;7.6
57798;PMS7003;43626;53.866;30.298;2022-11-15T16:49:15;18;12;7.4
57798;PMS7003;43626;53.866;30.298;2022-11-15T16:54:41;18;12.4;8.4
57798;PMS7003;43626;53.866;30.298;2022-11-15T16:59:35;14.8;12.6;7.4
57798;PMS7003;43626;53.866;30.298;2022-11-15T17:04:43;15.8;12.8;8
57798;PMS7003;43626;53.866;30.298;2022-11-15T17:09:41;16.2;14.2;8.8
57798;PMS7003;43626;53.866;30.298;2022-11-15T17:14:15;15.8;13;8
57798;PMS7003;43626;53.866;30.298;2022-11-15T17:19:37;21;15.6;9.4
57798;PMS7003;43626;53.866;30.298;2022-11-15T17:24:15;19;16;9.2
57798;PMS7003;43626;53.866;30.298;2022-11-15T17:29:55;21.5;16.8;10
57798;PMS7003;43626;53.866;30.298;2022-11-15T17:34:43;18;13.6;9
57798;PMS7003;43626;53.866;30.298;2022-11-15T17:39:05;14.4;12.6;7.8
57798;PMS7003;43626;53.866;30.298;2022-11-15T17:44:15;17.2;11.8;8
57798;PMS7003;43626;53.866;30.298;2022-11-15T17:49:55;13.4;11.4;8
57798;PMS7003;43626;53.866;30.298;2022-11-15T17:54:55;15;12.8;8.4
57798;PMS7003;43626;53.866;30.298;2022-11-15T17:59:51;18.2;15.4;10.4
57798;PMS7003;43626;53.866;30.298;2022-11-15T18:04:04;16.4;13;8.4
57798;PMS7003;43626;53.866;30.298;2022-11-15T18:09:41;14.2;12.4;7.6
57798;PMS7003;43626;53.866;30.298;2022-11-15T18:14:39;18.8;14.8;9.2
57798;PMS7003;43626;53.866;30.298;2022-11-15T18:19:19;17.8;14.2;9.2
57798;PMS7003;43626;53.866;30.298;2022-11-15T18:24:55;17.6;14.4;8.8
57798;PMS7003;43626;53.866;30.298;2022-11-15T18:29:13;16.3;12.8;7.3
57798;PMS7003;43626;53.866;30.298;2022-11-15T18:34:39;15.4;13;8.2
57798;PMS7003;43626;53.866;30.298;2022-11-15T18:39:26;14.4;13.2;8.6
57798;PMS7003;43626;53.866;30.298;2022-11-15T18:44:55;13.8;12.2;7.8
57798;PMS7003;43626;53.866;30.298;2022-11-15T18:49:29;15;13.4;7.2
57798;PMS7003;43626;53.866;30.298;2022-11-15T18:54:15;13.2;10.6;7.2
57798;PMS7003;43626;53.866;30.298;2022-11-15T18:59:39;12.6;10.6;7.2
57798;PMS7003;43626;53.866;30.298;2022-11-15T19:04:51;16;13.4;8.2
57798;PMS7003;43626;53.866;30.298;2022-11-15T19:09:55;18.2;16;9.4
57798;PMS7003;43626;53.866;30.298;2022-11-15T19:14:43;14.2;13.2;8.4
57798;PMS7003;43626;53.866;30.298;2022-11-15T19:19:06;17.2;14;8.6
57798;PMS7003;43626;53.866;30.298;2022-11-15T19:24:51;17.6;15;9.4
57798;PMS7003;43626;53.866;30.298;2022-11-15T19:29:27;19;14.3;10.3
57798;PMS7003;43626;53.866;30.298;2022-11-15T19:34:29;18.6;13.6;9
57798;PMS7003;43626;53.866;30.298;2022-11-15T19:39:57;17.6;15.6;10
57798;PMS7003;43626;53.866;30.298;2022-11-15T19:44:15;20.2;16.8;11
57798;PMS7003;43626;53.866;30.298;2022-11-15T19:49:39;21.8;18.4;11.8
57798;PMS7003;43626;53.866;30.298;2022-11-15T19:54:25;19.8;16;9.8
57798;PMS7003;43626;53.866;30.298;2022-11-15T19:59:53;18;14.8;9
57798;PMS7003;43626;53.866;30.298;2022-11-15T20:04:29;18.2;16.6;11
57798;PMS7003;43626;53.866;30.298;2022-11-15T20:09:41;17;13.4;8.8
57798;PMS7003;43626;53.866;30.298;2022-11-15T20:14:27;20.8;18.2;11.2
57798;PMS7003;43626;53.866;30.298;2022-11-15T20:19:55;25.6;22;12.4
57798;PMS7003;43626;53.866;30.298;2022-11-15T20:24:25;17.8;15.4;9.8
57798;PMS7003;43626;53.866;30.298;2022-11-15T20:29:57;28;23.5;13.3
57798;PMS7003;43626;53.866;30.298;2022-11-15T20:34:05;22.8;19.8;11.8
57798;PMS7003;43626;53.866;30.298;2022-11-15T20:39:43;21.2;16.6;10.6
57798;PMS7003;43626;53.866;30.298;2022-11-15T20:44:39;17;14.8;9
57798;PMS7003;43626;53.866;30.298;2022-11-15T20:49:41;18.6;15.2;9.4
57798;PMS7003;43626;53.866;30.298;2022-11-15T20:54:57;26.2;22.8;13
57798;PMS7003;43626;53.866;30.298;2022-11-15T20:59:03;26;20.6;12.4
57798;PMS7003;43626;53.866;30.298;2022-11-15T21:04:55;27;23.4;12.8
57798;PMS7003;43626;53.866;30.298;2022-11-15T21:09:27;23.2;19.2;11.8
57798;PMS7003;43626;53.866;30.298;2022-11-15T21:14:39;29.6;24.4;14
57798;PMS7003;43626;53.866;30.298;2022-11-15T21:19:15;39.8;32.2;17.8
57798;PMS7003;43626;53.866;30.298;2022-11-15T21:24:15;38;29.6;15
57798;PMS7003;43626;53.866;30.298;2022-11-15T21:29:23;40;32.8;17.5
57798;PMS7003;43626;53.866;30.298;2022-11-15T21:34:41;50.2;37.6;22
57798;PMS7003;43626;53.866;30.298;2022-11-15T21:39:25;40.8;31.2;17.8
57798;PMS7003;43626;53.866;30.298;2022-11-15T21:44:55;37.6;30.4;17.2
57798;PMS7003;43626;53.866;30.298;2022-11-15T21:49:15;29.4;23.2;13.2
57798;PMS7003;43626;53.866;30.298;2022-11-15T21:54:55;22.2;18;10.8
57798;PMS7003;43626;53.866;30.298;2022-11-15T21:59:35;24.2;21.2;11
57798;PMS7003;43626;53.866;30.298;2022-11-15T22:04:21;25.6;20.4;11.4
57798;PMS7003;43626;53.866;30.298;2022-11-15T22:09:51;25.4;21;11.6
57798;PMS7003;43626;53.866;30.298;2022-11-15T22:14:03;26.6;20.4;12.2
57798;PMS7003;43626;53.866;30.298;2022-11-15T22:19:51;25;19.8;11.2
57798;PMS7003;43626;53.866;30.298;2022-11-15T22:24:21;28.2;22;12
57798;PMS7003;43626;53.866;30.298;2022-11-15T22:29:34;27.6;22;12.2
57798;PMS7003;43626;53.866;30.298;2022-11-15T22:34:19;27;21.3;13.3
57798;PMS7003;43626;53.866;30.298;2022-11-15T22:39:05;26.6;23.2;13.2
57798;PMS7003;43626;53.866;30.298;2022-11-15T22:44:21;30;25;14
57798;PMS7003;43626;53.866;30.298;2022-11-15T22:49:39;27.4;22.2;13.6
57798;PMS7003;43626;53.866;30.298;2022-11-15T22:54:21;28;23.6;13.4
57798;PMS7003;43626;53.866;30.298;2022-11-15T22:59:51;30.4;24.2;13
57798;PMS7003;43626;53.866;30.298;2022-11-15T23:04:05;30.2;25.8;15.2
57798;PMS7003;43626;53.866;30.298;2022-11-15T23:09:39;31.4;27.8;15.4
57798;PMS7003;43626;53.866;30.298;2022-11-15T23:14:35;32.8;27.2;15.8
57798;PMS7003;43626;53.866;30.298;2022-11-15T23:19:39;34.2;28.2;16.2
57798;PMS7003;43626;53.866;30.298;2022-11-15T23:24:51;38.6;30.8;16.8
57798;PMS7003;43626;53.866;30.298;2022-11-15T23:29:10;36.8;28.8;15.6
57798;PMS7003;43626;53.866;30.298;2022-11-15T23:34:51;34.8;28.5;16
57798;PMS7003;43626;53.866;30.298;2022-11-15T23:39:21;34.6;29;15.6
57798;PMS7003;43626;53.866;30.298;2022-11-15T23:44:37;37;30.2;16.4
57798;PMS7003;43626;53.866;30.298;2022-11-15T23:49:25;33.6;26.8;14.6
57798;PMS7003;43626;53.866;30.298;2022-11-15T23:54:05;34;28.4;14.6
57798;PMS7003;43626;53.866;30.298;2022-11-15T23:59:03;27.6;21.8;13.2
